Aviation Digital Data Service (ADDS)

Output produced by METARs form (0515 UTC 25 May 2018)
found at http://www.aviationweather.gov/adds/metars/
 
HTDA 250400Z 18006KT 9999 FEW012 BKN070 23/22 Q1014 NOSIG
HTDA 250500Z 2506/2612 18010KT 9999 SCT015 
     TEMPO 2507/2511 RA BKN017 FEW018CB
       
HTDO 250500Z 2506/2606 08008KT 9999 FEW025
       
HTKJ 250400Z 00000KT 9999 BKN023 BKN080 19/18 Q1018 NOSIG
HTKJ 250500Z 2506/2606 00000KT 9999 BKN024 
     BECMG 2512/2516 09005KT FEW030CB SCT032
       
HTMW 250400Z 00000KT 9999 FEW018 FEW019CB 19/18 Q1016 NOSIG
HTMW 250500Z 2506/2606 12010KT 9999 FEW022 FEW023CB SCT110 
     BECMG 2510/2512 33010KT SCT026 FEW027CB 
     BECMG 2516/2518 00000KT
       
HTZA 250400Z 17007KT 9999 SCT016 FEW018CB BKN080 25/23 Q1014 NOSIG
HTZA 250500Z 2506/2606 22010KT 9999 BKN016 FEW018CB BKN080 
     TEMPO 2507/2510 SHRA 
     BECMG 2510/2512 16010KT SCT018 SCT080 
     PROB30 
     TEMPO 2601/2606 22010KT 8000 SHRA BKN016 FEW018CB BKN080